Time;durP1;ratioP1;P1;durP2;ratioP2;P2;SDS_P1;SDS_P2;PMS_P1;PMS_P2;Temp;Humidity;BMP_temperature;BMP_pressure;BME280_temperature;BME280_humidity;BME280_pressure;Samples;Min_cycle;Max_cycle;Signal;HPM_P1;HPM_P2
2022/01/23 00:02:02;;;;;;;;;;;22.30;99.90;;;;;;4210273;28;20047;-64
2022/01/23 00:04:06;;;;;;;61.58;44.10;;;22.40;99.90;;;;;;4203196;28;19928;-66
2022/01/23 00:06:11;;;;;;;56.42;42.85;;;22.30;99.90;;;;;;4209252;28;20420;-66
2022/01/23 00:08:20;;;;;;;57.50;42.42;;;22.40;99.90;;;;;;4211255;28;20039;-67
2022/01/23 00:10:25;;;;;;;64.20;46.28;;;22.30;99.90;;;;;;4212479;28;20072;-65
2022/01/23 00:12:33;;;;;;;62.50;46.88;;;22.40;99.90;;;;;;4210291;28;20044;-65
2022/01/23 00:19:12;;;;;;;55.17;45.20;;;22.40;99.90;;;;;;4209785;28;20048;-64
2022/01/23 00:21:16;;;;;;;61.05;43.10;;;22.30;99.90;;;;;;4209835;28;20040;-65
2022/01/23 00:30:25;;;;;;;60.00;44.80;;;22.50;99.90;;;;;;4210424;28;20036;-67
2022/01/23 00:32:30;;;;;;;58.90;46.92;;;22.50;99.90;;;;;;4209699;28;20044;-67
2022/01/23 00:34:35;;;;;;;61.53;46.83;;;22.50;99.90;;;;;;4209262;28;20117;-65
2022/01/23 00:36:42;;;;;;;56.05;43.80;;;22.50;99.90;;;;;;4190733;28;20044;-67
2022/01/23 00:38:46;;;;;;;54.47;42.28;;;22.50;99.90;;;;;;4210002;28;20044;-66
2022/01/23 00:40:52;;;;;;;63.97;42.05;;;22.60;99.90;;;;;;4208123;28;20048;-64
2022/01/23 00:42:58;;;;;;;60.88;39.60;;;22.70;99.90;;;;;;4209704;28;20547;-61
2022/01/23 00:45:26;;;;;;;51.67;38.03;;;22.70;99.90;;;;;;4207536;28;20056;-63
2022/01/23 00:47:27;;;;;;;47.13;37.05;;;22.70;99.90;;;;;;4208694;28;20750;-64
2022/01/23 00:49:32;;;;;;;48.17;36.72;;;22.60;99.90;;;;;;4209748;28;20108;-63
2022/01/23 00:51:38;;;;;;;46.22;35.45;;;22.60;99.90;;;;;;4209520;28;20132;-63
2022/01/23 00:53:42;;;;;;;46.78;36.63;;;22.60;99.90;;;;;;4209385;28;20555;-65
2022/01/23 00:55:47;;;;;;;51.10;38.78;;;22.70;99.90;;;;;;4208122;28;20084;-64
2022/01/23 00:57:52;;;;;;;49.97;37.85;;;22.70;99.90;;;;;;4208740;28;20125;-65
2022/01/23 00:59:57;;;;;;;50.42;38.38;;;22.60;99.90;;;;;;4209973;28;20544;-66
2022/01/23 01:02:03;;;;;;;49.60;38.92;;;22.30;99.90;;;;;;4190987;28;20159;-66
2022/01/23 01:04:08;;;;;;;52.30;40.30;;;22.20;99.90;;;;;;4209159;28;20396;-67
2022/01/23 01:06:13;;;;;;;46.47;36.67;;;22.20;99.90;;;;;;4190080;28;20524;-66
2022/01/23 01:08:18;;;;;;;46.75;37.53;;;22.30;99.90;;;;;;4192373;28;20044;-66
2022/01/23 01:10:54;;;;;;;48.83;39.42;;;22.30;99.90;;;;;;4193370;28;20056;-67
2022/01/23 01:12:50;;;;;;;48.53;37.63;;;22.40;99.90;;;;;;4194163;28;20071;-67
2022/01/23 01:15:22;;;;;;;47.08;38.47;;;22.50;99.90;;;;;;4194561;28;20093;-65
2022/01/23 01:35:29;;;;;;;51.33;39.70;;;22.20;99.90;;;;;;4186850;28;20057;-69
2022/01/23 01:37:34;;;;;;;50.63;39.72;;;22.30;99.90;;;;;;4183260;28;20797;-69
2022/01/23 01:39:40;;;;;;;45.85;38.42;;;22.50;99.90;;;;;;4187313;28;20150;-69
2022/01/23 01:41:45;;;;;;;46.90;38.55;;;22.60;99.90;;;;;;4207786;28;20036;-71
2022/01/23 01:43:52;;;;;;;47.10;36.33;;;22.70;99.90;;;;;;4184422;28;20041;-68
2022/01/23 01:46:15;;;;;;;49.90;39.63;;;22.80;99.90;;;;;;4185096;28;20041;-66
2022/01/23 01:48:28;;;;;;;52.33;40.90;;;22.80;99.90;;;;;;4182829;28;20976;-67
2022/01/23 01:50:44;;;;;;;50.00;38.88;;;22.80;99.90;;;;;;4185722;28;20044;-66
2022/01/23 01:52:50;;;;;;;52.03;38.65;;;22.80;99.90;;;;;;4186686;28;20051;-68
2022/01/23 01:55:01;;;;;;;52.45;36.50;;;22.80;99.90;;;;;;4206251;28;20055;-68
2022/01/23 01:57:13;;;;;;;47.85;38.33;;;22.80;99.90;;;;;;4206298;28;20555;-65
2022/01/23 02:09:20;;;;;;;47.10;37.13;;;22.30;99.90;;;;;;4206588;28;20136;-66
2022/01/23 02:11:56;;;;;;;48.80;37.35;;;22.00;99.90;;;;;;4186154;28;20053;-67
2022/01/23 02:14:07;;;;;;;53.30;41.03;;;22.00;99.90;;;;;;4206681;28;20059;-67
2022/01/23 02:50:51;;;;;;;69.63;56.85;;;22.70;99.90;;;;;;4186593;28;20041;-68
2022/01/23 02:53:29;;;;;;;67.63;53.53;;;22.60;99.90;;;;;;4189553;28;20073;-68
2022/01/23 02:55:26;;;;;;;65.88;53.30;;;22.70;99.90;;;;;;4204639;28;20041;-65
2022/01/23 02:59:51;;;;;;;66.50;52.40;;;22.60;99.90;;;;;;4183617;28;20089;-66
2022/01/23 03:04:26;;;;;;;72.18;57.28;;;22.70;99.90;;;;;;4193551;28;20128;-66
2022/01/23 03:25:17;;;;;;;51.47;43.40;;;23.20;99.90;;;;;;4209283;28;20085;-65
2022/01/23 03:29:57;;;;;;;52.20;44.25;;;23.20;99.90;;;;;;4184923;28;20049;-67
2022/01/23 03:32:19;;;;;;;54.10;43.45;;;23.30;99.90;;;;;;4194106;28;20041;-66
2022/01/23 03:34:25;;;;;;;57.22;43.47;;;23.30;99.90;;;;;;4204544;28;20148;-63
2022/01/23 03:36:30;;;;;;;55.83;43.10;;;23.20;99.90;;;;;;4193432;28;20052;-67
2022/01/23 03:38:34;;;;;;;52.75;43.30;;;23.20;99.90;;;;;;4205972;28;20074;-67
2022/01/23 03:40:38;;;;;;;63.95;42.45;;;23.30;99.90;;;;;;4205226;28;20040;-70
2022/01/23 03:42:45;;;;;;;54.60;43.45;;;23.30;99.90;;;;;;4209465;28;20041;-71
2022/01/23 03:45:08;;;;;;;55.22;43.20;;;23.30;99.90;;;;;;4191564;28;20073;-64
2022/01/23 03:51:44;;;;;;;52.20;43.53;;;23.40;99.90;;;;;;4191688;28;20131;-69
2022/01/23 03:53:48;;;;;;;55.83;42.92;;;23.30;99.90;;;;;;4210282;28;20050;-68
2022/01/23 03:55:54;;;;;;;51.45;40.70;;;23.30;99.90;;;;;;4191211;28;20105;-67
2022/01/23 03:57:58;;;;;;;49.85;42.38;;;23.20;99.90;;;;;;4209225;28;20462;-68
2022/01/23 04:00:04;;;;;;;51.97;42.03;;;23.20;99.90;;;;;;4207239;28;20068;-66
2022/01/23 04:02:16;;;;;;;48.05;39.45;;;23.30;99.90;;;;;;4210822;28;20568;-66
2022/01/23 04:06:37;;;;;;;49.78;41.50;;;23.30;99.90;;;;;;4192703;28;20098;-66
2022/01/23 04:08:41;;;;;;;56.58;42.30;;;23.40;99.90;;;;;;4209621;28;20056;-66
2022/01/23 04:10:46;;;;;;;48.40;39.80;;;23.40;99.90;;;;;;4189755;28;20499;-68
2022/01/23 05:00:19;;;;;;;43.88;32.20;;;23.60;99.90;;;;;;4189499;28;20052;-67
2022/01/23 05:04:42;;;;;;;39.42;31.83;;;23.50;99.90;;;;;;4208994;28;20071;-67
2022/01/23 05:07:06;;;;;;;40.88;34.28;;;23.50;99.90;;;;;;4191813;28;20059;-68
2022/01/23 05:09:23;;;;;;;39.47;32.30;;;23.50;99.90;;;;;;4206296;28;20051;-67
2022/01/23 05:11:29;;;;;;;35.95;32.05;;;23.60;99.90;;;;;;4206269;28;20517;-67
2022/01/23 05:13:44;;;;;;;38.30;32.33;;;23.60;99.90;;;;;;4209011;28;20493;-70
2022/01/23 05:15:50;;;;;;;41.55;33.15;;;23.60;99.90;;;;;;4191182;28;20548;-69
2022/01/23 05:17:55;;;;;;;38.85;32.53;;;23.60;99.90;;;;;;4206869;28;20047;-72
2022/01/23 05:20:00;;;;;;;36.53;32.28;;;23.70;99.90;;;;;;4194659;28;20565;-69
2022/01/23 05:24:30;;;;;;;42.35;32.97;;;23.80;99.90;;;;;;4208785;28;20110;-72
2022/01/23 05:26:42;;;;;;;43.10;35.60;;;23.80;99.90;;;;;;4208112;28;20045;-69
2022/01/23 05:28:46;;;;;;;44.50;36.72;;;23.80;99.90;;;;;;4190695;28;20609;-70
2022/01/23 05:30:51;;;;;;;42.50;36.38;;;23.70;99.90;;;;;;4207572;28;20052;-71
2022/01/23 05:32:59;;;;;;;41.85;35.35;;;23.80;99.90;;;;;;4205006;28;20586;-70
2022/01/23 05:35:05;;;;;;;41.38;35.40;;;23.90;99.90;;;;;;4189631;28;20078;-73
2022/01/23 05:37:11;;;;;;;49.97;33.65;;;23.90;99.90;;;;;;4191301;28;20101;-70
2022/01/23 05:39:21;;;;;;;45.20;35.15;;;24.00;99.90;;;;;;4207049;28;20071;-73
2022/01/23 05:41:27;;;;;;;42.92;35.00;;;24.10;99.90;;;;;;4190749;28;20071;-73
2022/01/23 05:43:33;;;;;;;47.75;39.08;;;24.30;99.90;;;;;;4205473;28;20600;-69
2022/01/23 05:45:41;;;;;;;44.25;36.78;;;24.30;99.90;;;;;;4189669;28;20047;-71
2022/01/23 05:48:06;;;;;;;57.67;43.60;;;24.40;99.90;;;;;;4207481;28;20048;-70
2022/01/23 05:50:23;;;;;;;54.05;41.95;;;24.40;99.90;;;;;;4207419;28;20137;-69
2022/01/23 05:52:47;;;;;;;54.45;43.58;;;24.50;99.90;;;;;;4208060;28;20070;-71
2022/01/23 05:55:13;;;;;;;61.15;46.72;;;24.50;99.90;;;;;;4207859;28;20385;-67
2022/01/23 05:57:30;;;;;;;55.28;44.35;;;24.30;99.90;;;;;;4206997;28;20044;-65
2022/01/23 05:59:46;;;;;;;54.63;44.10;;;24.20;99.90;;;;;;4208820;28;20044;-65
2022/01/23 06:01:52;;;;;;;53.45;44.47;;;24.20;99.90;;;;;;4193592;28;20071;-66
2022/01/23 06:04:02;;;;;;;50.08;41.92;;;24.50;99.90;;;;;;4192512;28;20041;-65
2022/01/23 06:06:15;;;;;;;49.80;42.25;;;24.60;99.90;;;;;;4194903;28;20048;-66
2022/01/23 06:08:21;;;;;;;48.97;41.78;;;24.40;99.90;;;;;;4193256;28;20040;-66
2022/01/23 06:10:28;;;;;;;51.45;43.45;;;24.40;99.90;;;;;;4194132;28;20045;-68
2022/01/23 06:12:34;;;;;;;54.97;43.40;;;24.50;99.90;;;;;;4192495;28;20040;-67
2022/01/23 06:14:39;;;;;;;50.70;42.60;;;24.60;99.90;;;;;;4193169;28;20048;-67
2022/01/23 06:16:43;;;;;;;51.65;42.15;;;24.60;99.90;;;;;;4193000;28;20041;-66
2022/01/23 06:19:00;;;;;;;49.22;42.25;;;24.80;99.90;;;;;;4212265;28;20569;-66
2022/01/23 06:21:19;;;;;;;50.85;43.05;;;24.60;99.90;;;;;;4211220;28;20051;-66
2022/01/23 06:23:36;;;;;;;54.63;43.92;;;24.60;99.90;;;;;;4208270;28;20056;-69
2022/01/23 06:25:56;;;;;;;48.80;40.28;;;24.70;99.90;;;;;;4209886;28;20522;-68
2022/01/23 06:28:09;;;;;;;45.40;38.33;;;24.90;99.90;;;;;;4212428;28;20052;-69
2022/01/23 06:30:14;;;;;;;47.70;38.65;;;25.00;99.90;;;;;;4194290;28;20056;-71
2022/01/23 06:32:19;;;;;;;42.75;38.13;;;25.00;99.90;;;;;;4212518;28;20478;-73
2022/01/23 06:34:24;;;;;;;45.97;38.45;;;25.00;99.90;;;;;;4208534;28;20613;-70
2022/01/23 06:36:28;;;;;;;46.72;37.35;;;25.10;99.90;;;;;;4211863;28;20113;-70
2022/01/23 06:38:33;;;;;;;45.05;36.13;;;25.10;99.90;;;;;;4211494;28;20151;-67
2022/01/23 06:40:38;;;;;;;43.33;35.00;;;25.10;99.90;;;;;;4209069;28;20040;-67
2022/01/23 06:43:02;;;;;;;42.00;33.65;;;25.30;99.90;;;;;;4210174;28;21031;-68
2022/01/23 06:45:16;;;;;;;40.90;34.08;;;25.40;99.90;;;;;;4193913;28;20513;-68
2022/01/23 06:47:20;;;;;;;41.55;32.20;;;25.40;99.90;;;;;;4193187;28;20044;-69
2022/01/23 06:49:25;;;;;;;34.35;29.67;;;25.30;99.90;;;;;;4208199;28;20081;-71
2022/01/23 06:51:29;;;;;;;33.08;27.60;;;25.40;99.90;;;;;;4192989;28;20041;-68
2022/01/23 06:53:34;;;;;;;36.88;30.73;;;25.40;99.90;;;;;;4190616;28;20056;-67
2022/01/23 06:55:39;;;;;;;36.90;30.13;;;25.50;99.90;;;;;;4208485;28;20048;-72
2022/01/23 06:57:44;;;;;;;37.55;28.80;;;25.50;99.90;;;;;;4192534;28;20078;-72
2022/01/23 06:59:51;;;;;;;35.10;28.65;;;25.50;99.90;;;;;;4192549;28;20120;-71
2022/01/23 07:02:15;;;;;;;33.15;28.70;;;25.40;99.90;;;;;;4210729;28;20068;-72
2022/01/23 07:04:32;;;;;;;37.47;28.92;;;25.50;99.90;;;;;;4189401;28;20052;-70
2022/01/23 07:06:53;;;;;;;32.35;25.55;;;25.40;99.90;;;;;;4193233;28;20047;-68
2022/01/23 07:09:09;;;;;;;31.90;25.60;;;25.40;99.90;;;;;;4210824;28;20119;-69
2022/01/23 07:11:33;;;;;;;29.40;24.77;;;25.20;99.90;;;;;;4211173;28;20076;-73
2022/01/23 07:13:56;;;;;;;;;;;25.30;99.90;;;;;;4208675;28;20047;-67
2022/01/23 07:16:14;;;;;;;26.05;22.55;;;25.50;99.90;;;;;;4188122;28;20360;-71
2022/01/23 07:18:30;;;;;;;26.92;21.05;;;25.60;99.90;;;;;;4212002;28;20048;-73
2022/01/23 07:20:47;;;;;;;26.35;21.33;;;25.70;99.90;;;;;;4209855;28;20482;-66
2022/01/23 07:22:58;;;;;;;26.80;21.33;;;25.80;99.90;;;;;;4193213;28;20045;-69
2022/01/23 07:25:04;;;;;;;35.35;21.20;;;25.80;99.90;;;;;;4208934;28;20040;-71
2022/01/23 07:27:17;;;;;;;31.30;23.35;;;25.80;99.90;;;;;;4209320;28;20040;-68
2022/01/23 07:29:22;;;;;;;33.97;22.83;;;25.80;99.90;;;;;;4192612;28;20029;-68
2022/01/23 07:33:40;;;;;;;27.77;21.35;;;25.90;99.90;;;;;;4192388;28;20044;-66
2022/01/23 07:35:45;;;;;;;25.35;19.33;;;25.80;99.90;;;;;;4207501;28;20439;-65
2022/01/23 07:37:49;;;;;;;22.02;19.50;;;25.80;99.90;;;;;;4210565;28;20065;-66
2022/01/23 07:39:56;;;;;;;27.05;19.33;;;25.90;99.90;;;;;;4211284;28;20048;-66
2022/01/23 07:42:21;;;;;;;24.73;18.35;;;26.00;99.90;;;;;;4211024;28;20055;-67
2022/01/23 07:44:34;;;;;;;27.73;18.83;;;26.00;99.90;;;;;;4207703;28;20052;-66
2022/01/23 07:46:51;;;;;;;22.65;17.75;;;26.00;99.90;;;;;;4207664;28;20036;-65
2022/01/23 07:49:16;;;;;;;20.58;16.23;;;26.00;99.90;;;;;;4205810;28;20756;-62
2022/01/23 07:51:33;;;;;;;23.95;15.88;;;26.00;99.90;;;;;;4208170;28;20520;-66
2022/01/23 07:53:53;;;;;;;21.42;16.88;;;26.00;99.90;;;;;;4192588;28;20060;-66
2022/01/23 07:56:10;;;;;;;20.38;16.20;;;26.00;99.90;;;;;;4206476;28;20040;-65
2022/01/23 07:58:20;;;;;;;20.35;16.85;;;26.00;99.90;;;;;;4210429;28;20048;-66
2022/01/23 08:00:37;;;;;;;19.45;16.05;;;26.00;99.90;;;;;;4208308;28;20043;-65
2022/01/23 08:02:42;;;;;;;21.55;16.23;;;26.00;99.70;;;;;;4186601;28;20037;-65
2022/01/23 08:04:58;;;;;;;15.80;13.75;;;26.00;99.90;;;;;;4208126;28;20048;-63
2022/01/23 08:07:10;;;;;;;16.67;12.45;;;26.10;99.80;;;;;;4189758;28;20041;-64
2022/01/23 08:09:27;;;;;;;13.73;11.55;;;26.10;98.30;;;;;;4209621;28;20547;-68
2022/01/23 08:11:31;;;;;;;14.85;11.52;;;26.10;98.50;;;;;;4210422;28;20071;-70
2022/01/23 08:13:35;;;;;;;15.65;11.55;;;26.10;98.50;;;;;;4209640;28;20128;-69
2022/01/23 08:15:40;;;;;;;15.57;11.82;;;26.10;98.80;;;;;;4205477;28;20490;-69
2022/01/23 08:17:44;;;;;;;17.08;11.45;;;26.20;98.70;;;;;;4207699;28;20063;-69
2022/01/23 08:19:49;;;;;;;15.00;11.52;;;26.20;98.70;;;;;;4209100;28;20040;-71
2022/01/23 08:21:54;;;;;;;17.30;10.52;;;26.20;98.80;;;;;;4209840;28;20074;-72
2022/01/23 08:23:58;;;;;;;16.02;11.20;;;26.20;99.20;;;;;;4208748;28;20040;-71
2022/01/23 08:26:02;;;;;;;14.95;10.57;;;26.20;99.00;;;;;;4206900;28;20123;-72
2022/01/23 08:28:07;;;;;;;16.60;11.50;;;26.20;99.20;;;;;;4210132;28;20048;-70
2022/01/23 08:30:13;;;;;;;18.95;10.88;;;26.30;99.90;;;;;;4209174;28;20047;-70
2022/01/23 08:32:17;;;;;;;15.80;10.70;;;26.30;98.80;;;;;;4191191;28;20037;-70
2022/01/23 08:34:22;;;;;;;13.70;9.95;;;26.30;98.60;;;;;;4208470;28;20040;-70
2022/01/23 08:36:29;;;;;;;12.27;10.20;;;26.30;97.70;;;;;;4206849;28;20048;-70
2022/01/23 08:38:34;;;;;;;15.05;10.20;;;26.30;97.70;;;;;;4210130;28;20494;-69
2022/01/23 08:42:51;;;;;;;14.05;10.82;;;26.20;97.70;;;;;;4210517;28;20379;-68
2022/01/23 08:44:56;;;;;;;13.57;10.55;;;26.20;97.90;;;;;;4208929;28;20532;-69
2022/01/23 08:47:01;;;;;;;16.50;11.35;;;26.30;97.80;;;;;;4208306;28;20040;-68
2022/01/23 08:49:06;;;;;;;21.00;11.20;;;26.20;98.00;;;;;;4208243;28;20044;-71
2022/01/23 08:51:11;;;;;;;19.45;11.85;;;26.30;98.40;;;;;;4210436;28;20401;-68
2022/01/23 08:53:16;;;;;;;15.45;11.07;;;26.30;98.20;;;;;;4209218;28;20156;-70
2022/01/23 08:55:20;;;;;;;13.70;11.00;;;26.30;98.20;;;;;;4208869;28;20108;-69
2022/01/23 08:57:25;;;;;;;14.00;11.55;;;26.30;97.90;;;;;;4208204;28;20040;-70
2022/01/23 08:59:38;;;;;;;16.33;10.88;;;26.30;97.50;;;;;;4209502;28;20044;-68
2022/01/23 09:01:42;;;;;;;19.67;11.38;;;26.30;97.60;;;;;;4208961;28;20054;-69
2022/01/23 09:03:47;;;;;;;19.50;11.55;;;26.30;97.90;;;;;;4203032;28;20087;-70
2022/01/23 09:05:52;;;;;;;19.75;12.75;;;26.30;97.60;;;;;;4209087;28;20143;-68
2022/01/23 09:07:56;;;;;;;14.82;12.20;;;26.30;97.40;;;;;;4207522;28;20042;-68
2022/01/23 09:10:03;;;;;;;15.32;12.40;;;26.30;97.50;;;;;;4209714;28;20058;-68
2022/01/23 09:14:20;;;;;;;15.25;12.43;;;26.40;97.70;;;;;;4209588;28;20056;-68
2022/01/23 09:16:25;;;;;;;17.52;14.05;;;26.30;97.20;;;;;;4208778;28;20482;-69
2022/01/23 09:18:30;;;;;;;21.25;15.43;;;26.30;97.60;;;;;;4209703;28;20063;-67
2022/01/23 09:20:34;;;;;;;20.73;16.23;;;26.40;97.40;;;;;;4208698;28;20048;-67
2022/01/23 09:22:39;;;;;;;19.77;15.52;;;26.30;97.60;;;;;;4208609;28;20081;-71
2022/01/23 09:24:44;;;;;;;24.45;15.98;;;26.30;98.10;;;;;;4206316;28;20127;-67
2022/01/23 09:26:53;;;;;;;22.92;15.80;;;26.30;98.30;;;;;;4188389;28;20037;-69
2022/01/23 09:29:00;;;;;;;23.55;15.63;;;26.30;98.40;;;;;;4206508;28;20082;-66
2022/01/23 09:31:05;;;;;;;20.42;15.40;;;26.30;98.20;;;;;;4207088;28;20387;-66
2022/01/23 09:33:13;;;;;;;23.23;17.25;;;26.40;98.30;;;;;;4207311;28;20989;-68
2022/01/23 09:35:18;;;;;;;21.45;17.58;;;26.40;98.50;;;;;;4191189;28;20056;-67
2022/01/23 09:37:22;;;;;;;21.20;17.20;;;26.40;98.60;;;;;;4208148;28;20101;-67
2022/01/23 09:39:26;;;;;;;26.10;17.27;;;26.40;98.80;;;;;;4208268;28;20178;-70
2022/01/23 09:41:34;;;;;;;21.85;16.35;;;26.30;98.70;;;;;;4209291;28;20535;-66
2022/01/23 09:43:39;;;;;;;22.15;16.35;;;26.40;98.80;;;;;;4209121;28;20047;-67
2022/01/23 09:45:46;;;;;;;21.30;15.55;;;26.40;98.70;;;;;;4210714;28;20151;-68
2022/01/23 09:47:52;;;;;;;17.38;14.45;;;26.40;98.70;;;;;;4207503;28;20048;-68
2022/01/23 09:50:00;;;;;;;17.17;14.38;;;26.40;98.70;;;;;;4210151;28;20145;-69
2022/01/23 09:52:05;;;;;;;16.95;14.27;;;26.40;98.60;;;;;;4209403;28;20117;-68
2022/01/23 09:54:11;;;;;;;19.73;14.18;;;26.30;98.50;;;;;;4210614;28;20038;-69
2022/01/23 09:56:17;;;;;;;16.50;13.90;;;26.30;98.40;;;;;;4208111;28;20051;-68
2022/01/23 09:58:21;;;;;;;15.90;13.43;;;26.30;98.30;;;;;;4204730;28;20544;-73
2022/01/23 10:00:28;;;;;;;17.60;14.20;;;26.30;98.30;;;;;;4207431;28;20487;-72
2022/01/23 10:02:33;;;;;;;18.30;14.80;;;26.30;98.30;;;;;;4208163;28;20093;-70
2022/01/23 10:04:37;;;;;;;18.50;14.50;;;26.30;98.30;;;;;;4209416;28;20625;-68
2022/01/23 10:06:42;;;;;;;17.35;14.25;;;26.30;98.30;;;;;;4208053;28;20054;-70
2022/01/23 10:08:47;;;;;;;18.02;14.15;;;26.30;98.30;;;;;;4205582;28;20406;-70
2022/01/23 10:10:53;;;;;;;21.00;14.68;;;26.30;98.40;;;;;;4190357;28;20042;-70
2022/01/23 10:12:59;;;;;;;17.73;13.88;;;26.30;98.30;;;;;;4207547;28;20062;-70
2022/01/23 10:15:03;;;;;;;21.77;14.13;;;26.30;98.20;;;;;;4208554;28;20054;-68
2022/01/23 10:17:09;;;;;;;19.75;14.10;;;26.30;98.20;;;;;;4210849;28;20051;-68
2022/01/23 10:19:15;;;;;;;19.90;13.15;;;26.20;98.10;;;;;;4203979;28;20043;-67
2022/01/23 10:21:20;;;;;;;19.02;13.43;;;26.30;98.00;;;;;;4208009;28;20118;-67
2022/01/23 10:23:24;;;;;;;15.85;13.45;;;26.20;98.00;;;;;;4207018;28;20122;-64
2022/01/23 10:25:30;;;;;;;17.05;11.90;;;26.20;98.00;;;;;;4190738;28;20040;-63
2022/01/23 10:28:04;;;;;;;17.17;12.00;;;26.20;97.80;;;;;;4208666;28;20059;-65
2022/01/23 10:30:21;;;;;;;16.33;12.15;;;26.20;97.80;;;;;;4204969;28;20127;-65
2022/01/23 10:32:25;;;;;;;14.52;11.60;;;26.20;97.90;;;;;;4208014;28;20141;-65
2022/01/23 10:34:50;;;;;;;19.80;11.15;;;26.20;98.00;;;;;;4208153;28;20051;-64
2022/01/23 10:36:57;;;;;;;15.15;10.68;;;26.20;98.20;;;;;;4206223;28;20549;-65
2022/01/23 10:39:04;;;;;;;16.45;13.02;;;26.10;98.30;;;;;;4206135;28;20052;-64
2022/01/23 10:50:27;;;;;;;16.50;12.48;;;26.00;98.70;;;;;;4207579;28;20044;-64
2022/01/23 10:52:47;;;;;;;21.17;13.07;;;26.00;98.90;;;;;;4212560;28;20097;-63
2022/01/23 10:54:52;;;;;;;20.23;14.68;;;25.90;99.30;;;;;;4212462;28;20070;-63
2022/01/23 10:57:06;;;;;;;19.58;14.80;;;25.90;99.70;;;;;;4213452;28;20097;-62
2022/01/23 10:59:12;;;;;;;20.23;14.10;;;25.90;99.90;;;;;;4208127;28;20052;-63
2022/01/23 11:01:16;;;;;;;16.52;13.13;;;25.80;99.90;;;;;;4197100;28;20047;-63
2022/01/23 11:03:22;;;;;;;16.48;13.95;;;25.80;99.90;;;;;;4200734;28;20048;-63
2022/01/23 11:05:33;;;;;;;23.17;16.60;;;25.80;99.90;;;;;;4183879;28;20045;-64
2022/01/23 11:07:42;;;;;;;28.42;18.60;;;25.80;99.90;;;;;;4205300;28;20125;-64
2022/01/23 11:09:46;;;;;;;22.92;14.43;;;25.70;99.90;;;;;;4206043;28;20044;-64
2022/01/23 11:11:59;;;;;;;27.58;16.25;;;25.70;99.90;;;;;;4208153;28;20091;-64
2022/01/23 11:18:59;;;;;;;22.27;16.48;;;25.60;99.90;;;;;;4209024;28;20048;-67
2022/01/23 11:21:14;;;;;;;24.48;18.38;;;25.50;99.90;;;;;;4207844;28;20043;-66
2022/01/23 11:23:30;;;;;;;22.42;18.42;;;25.50;99.90;;;;;;4207244;28;20052;-67
2022/01/23 11:25:35;;;;;;;23.63;17.75;;;25.50;99.90;;;;;;4208348;28;20740;-67
2022/01/23 11:27:39;;;;;;;32.40;26.67;;;25.50;99.90;;;;;;4207404;28;20417;-67
2022/01/23 11:30:07;;;;;;;33.40;25.02;;;25.40;99.90;;;;;;4206055;28;20040;-67
2022/01/23 11:32:12;;;;;;;35.20;24.60;;;25.40;99.90;;;;;;4208184;28;20069;-67
2022/01/23 11:34:16;;;;;;;35.63;28.45;;;25.40;99.90;;;;;;4207590;28;20059;-66
2022/01/23 11:36:22;;;;;;;33.00;25.83;;;25.40;99.90;;;;;;4209027;28;20043;-67
2022/01/23 11:38:26;;;;;;;40.00;28.42;;;25.30;99.90;;;;;;4207416;28;20086;-66
2022/01/23 11:40:39;;;;;;;46.30;33.17;;;25.30;99.90;;;;;;4206710;28;20188;-66
2022/01/23 11:54:14;;;;;;;52.65;38.78;;;25.30;99.90;;;;;;4206214;28;20071;-66
2022/01/23 11:56:40;;;;;;;47.53;35.47;;;25.30;99.90;;;;;;4209237;28;20075;-66
2022/01/23 11:59:30;;;;;;;56.00;41.40;;;25.20;99.90;;;;;;4207083;28;20134;-67
2022/01/23 12:01:34;;;;;;;118.10;81.20;;;25.20;99.90;;;;;;4206127;28;20052;-68
2022/01/23 12:03:38;;;;;;;108.32;75.28;;;24.90;99.90;;;;;;4203067;28;20052;-68
2022/01/23 12:05:44;;;;;;;113.40;75.82;;;24.70;99.90;;;;;;4210609;28;20048;-68
2022/01/23 12:08:22;;;;;;;102.75;70.28;;;24.60;99.90;;;;;;4211408;28;20078;-68
2022/01/23 12:10:31;;;;;;;94.47;64.65;;;24.80;99.90;;;;;;4210963;28;20151;-67
2022/01/23 12:12:41;;;;;;;85.63;60.25;;;24.90;99.90;;;;;;4194780;28;20036;-67
2022/01/23 12:17:01;;;;;;;71.47;49.63;;;25.00;99.90;;;;;;4211782;28;20439;-66
2022/01/23 12:19:25;;;;;;;67.75;44.22;;;25.00;99.90;;;;;;4210143;28;20040;-66
2022/01/23 12:21:30;;;;;;;57.42;37.80;;;25.00;99.90;;;;;;4208822;28;20470;-67
2022/01/23 12:23:58;;;;;;;46.70;32.03;;;25.00;99.90;;;;;;4193540;28;20074;-66
2022/01/23 12:26:06;;;;;;;53.88;35.70;;;24.90;99.90;;;;;;4213609;28;20072;-68
2022/01/23 12:28:20;;;;;;;55.97;34.35;;;25.00;99.90;;;;;;4194023;28;20114;-69
2022/01/23 12:30:33;;;;;;;62.97;39.17;;;25.00;99.90;;;;;;4196186;28;20036;-70
2022/01/23 12:32:38;;;;;;;59.55;38.42;;;25.00;99.90;;;;;;4206166;28;20109;-68
2022/01/23 12:34:48;;;;;;;71.38;41.55;;;24.90;99.90;;;;;;4208870;28;20139;-68
2022/01/23 12:36:56;;;;;;;68.47;45.67;;;24.80;99.90;;;;;;4209411;28;20051;-68
2022/01/23 12:39:20;;;;;;;82.20;50.40;;;24.90;99.90;;;;;;4208136;28;20624;-69
2022/01/23 12:42:05;;;;;;;79.20;49.85;;;24.90;99.90;;;;;;4208307;28;20074;-69
2022/01/23 12:44:09;;;;;;;;;;;24.90;99.90;;;;;;4210748;28;20658;-67
2022/01/23 12:46:29;;;;;;;72.57;47.63;;;24.90;99.90;;;;;;4209068;28;20370;-68
2022/01/23 12:48:49;;;;;;;76.70;45.53;;;24.90;99.90;;;;;;4182807;28;20121;-69
2022/01/23 12:51:05;;;;;;;73.45;45.95;;;24.90;99.90;;;;;;4205862;28;20078;-69
2022/01/23 12:53:12;;;;;;;77.55;47.78;;;24.90;99.90;;;;;;4206338;28;20055;-69
2022/01/23 12:55:19;;;;;;;73.88;47.20;;;24.80;99.90;;;;;;4208056;28;20759;-69
2022/01/23 12:57:42;;;;;;;79.13;50.47;;;24.80;99.90;;;;;;4207445;28;20558;-69
2022/01/23 12:59:59;;;;;;;89.38;52.25;;;24.80;99.90;;;;;;4189281;28;20048;-69
2022/01/23 13:02:10;;;;;;;92.28;53.90;;;24.80;99.90;;;;;;4191201;28;20633;-70
2022/01/23 13:04:18;;;;;;;96.30;55.45;;;24.80;99.90;;;;;;4207857;28;20036;-69
2022/01/23 13:06:47;;;;;;;82.10;54.72;;;24.80;99.90;;;;;;4209267;28;20436;-65
2022/01/23 13:09:03;;;;;;;87.13;54.63;;;24.80;99.90;;;;;;4210180;28;20059;-69
2022/01/23 13:11:33;;;;;;;83.75;53.03;;;24.80;99.90;;;;;;4207766;28;20055;-67
2022/01/23 13:30:18;;;;;;;65.43;41.65;;;24.70;99.90;;;;;;4208964;28;20078;-67
2022/01/23 13:34:59;;;;;;;68.60;42.58;;;24.70;99.90;;;;;;4207469;28;20059;-67
2022/01/23 13:37:30;;;;;;;65.32;41.38;;;24.70;99.90;;;;;;4207714;28;20143;-68
2022/01/23 13:39:48;;;;;;;73.43;45.45;;;24.60;99.90;;;;;;4208195;28;20597;-67
2022/01/23 13:42:13;;;;;;;65.75;43.17;;;24.60;99.90;;;;;;4209132;28;20554;-66
2022/01/23 13:51:58;;;;;;;58.28;39.50;;;24.60;99.90;;;;;;4201786;28;20157;-67
2022/01/23 13:59:07;;;;;;;59.92;40.15;;;24.50;99.90;;;;;;4207591;28;20139;-67
2022/01/23 14:03:36;;;;;;;61.90;41.42;;;24.40;99.90;;;;;;4203241;28;20652;-66
2022/01/23 14:05:41;;;;;;;64.30;41.95;;;24.40;99.90;;;;;;4202605;28;20044;-67
2022/01/23 14:07:53;;;;;;;60.10;40.08;;;24.40;99.90;;;;;;4202280;28;20040;-67
2022/01/23 14:09:59;;;;;;;53.28;36.63;;;24.40;99.90;;;;;;4202523;28;20067;-67
2022/01/23 14:12:16;;;;;;;51.55;34.45;;;24.40;99.90;;;;;;4207805;28;20067;-66
2022/01/23 14:14:27;;;;;;;52.08;33.45;;;24.30;99.90;;;;;;4200450;28;20078;-66
2022/01/23 14:16:32;;;;;;;53.80;34.30;;;24.30;99.90;;;;;;4205006;28;20055;-67
2022/01/23 14:18:37;;;;;;;53.65;34.97;;;24.30;99.90;;;;;;4207919;28;20036;-67
2022/01/23 14:20:43;;;;;;;58.53;36.63;;;24.20;99.90;;;;;;4207221;28;20051;-68
2022/01/23 14:22:48;;;;;;;58.58;36.15;;;24.20;99.90;;;;;;4208743;28;20058;-67
2022/01/23 14:24:53;;;;;;;57.85;37.67;;;24.30;99.90;;;;;;4208277;28;20052;-66
2022/01/23 14:27:03;;;;;;;60.20;39.40;;;24.30;99.90;;;;;;4208496;28;20036;-67
2022/01/23 14:29:08;;;;;;;62.03;42.03;;;24.30;99.90;;;;;;4209734;28;20097;-66
2022/01/23 14:31:18;;;;;;;59.67;40.72;;;24.20;99.90;;;;;;4211641;28;21153;-66
2022/01/23 14:33:27;;;;;;;62.97;40.45;;;24.20;99.90;;;;;;4210707;28;20564;-66
2022/01/23 14:35:52;;;;;;;56.60;40.35;;;24.20;99.90;;;;;;4208982;28;20398;-67
2022/01/23 14:38:09;;;;;;;54.45;39.03;;;24.30;99.90;;;;;;4191533;28;20053;-67
2022/01/23 14:40:26;;;;;;;58.13;41.38;;;24.30;99.90;;;;;;4209092;28;20068;-66
2022/01/23 14:42:30;;;;;;;60.58;40.35;;;24.20;99.90;;;;;;4208292;28;20059;-66
2022/01/23 14:44:36;;;;;;;61.28;42.42;;;24.20;99.90;;;;;;4206264;28;20038;-67
2022/01/23 14:46:40;;;;;;;59.22;40.75;;;24.20;99.90;;;;;;4206721;28;20070;-67
2022/01/23 14:48:48;;;;;;;59.78;42.15;;;24.10;99.90;;;;;;4202851;28;21072;-68